sensor_id;sensor_type;location;lat;lon;timestamp;temperature;humidity
82231;DHT22;71832;45.138;9.816;2023-11-21T00:01:06;10.50;87.40
82231;DHT22;71832;45.138;9.816;2023-11-21T00:03:35;10.40;87.50
82231;DHT22;71832;45.138;9.816;2023-11-21T00:06:04;10.40;87.30
82231;DHT22;71832;45.138;9.816;2023-11-21T00:08:36;10.50;87.50
82231;DHT22;71832;45.138;9.816;2023-11-21T00:11:04;10.50;87.80
82231;DHT22;71832;45.138;9.816;2023-11-21T00:13:32;10.50;87.80
82231;DHT22;71832;45.138;9.816;2023-11-21T00:16:01;10.50;87.80
82231;DHT22;71832;45.138;9.816;2023-11-21T00:18:29;10.40;87.90
82231;DHT22;71832;45.138;9.816;2023-11-21T00:20:57;10.40;88.20
82231;DHT22;71832;45.138;9.816;2023-11-21T00:23:26;10.40;88.40
82231;DHT22;71832;45.138;9.816;2023-11-21T00:25:55;10.40;88.30
82231;DHT22;71832;45.138;9.816;2023-11-21T00:28:24;10.40;88.20
82231;DHT22;71832;45.138;9.816;2023-11-21T00:30:53;10.40;88.30
82231;DHT22;71832;45.138;9.816;2023-11-21T00:33:22;10.40;88.20
82231;DHT22;71832;45.138;9.816;2023-11-21T00:35:52;10.40;88.10
82231;DHT22;71832;45.138;9.816;2023-11-21T00:38:20;10.40;88.20
82231;DHT22;71832;45.138;9.816;2023-11-21T00:40:48;10.40;88.40
82231;DHT22;71832;45.138;9.816;2023-11-21T00:43:16;10.40;88.40
82231;DHT22;71832;45.138;9.816;2023-11-21T00:45:44;10.40;88.40
82231;DHT22;71832;45.138;9.816;2023-11-21T00:48:13;10.40;88.40
82231;DHT22;71832;45.138;9.816;2023-11-21T00:50:42;10.40;88.30
82231;DHT22;71832;45.138;9.816;2023-11-21T00:53:10;10.40;88.30
82231;DHT22;71832;45.138;9.816;2023-11-21T00:55:38;10.40;88.40
82231;DHT22;71832;45.138;9.816;2023-11-21T00:58:07;10.40;88.30
82231;DHT22;71832;45.138;9.816;2023-11-21T01:00:35;10.40;88.10
82231;DHT22;71832;45.138;9.816;2023-11-21T01:03:06;10.40;88.00
82231;DHT22;71832;45.138;9.816;2023-11-21T01:05:35;10.40;88.00
82231;DHT22;71832;45.138;9.816;2023-11-21T01:08:03;10.40;87.80
82231;DHT22;71832;45.138;9.816;2023-11-21T01:10:32;10.40;87.70
82231;DHT22;71832;45.138;9.816;2023-11-21T01:13:01;10.40;87.80
82231;DHT22;71832;45.138;9.816;2023-11-21T01:15:32;10.40;87.90
82231;DHT22;71832;45.138;9.816;2023-11-21T01:18:01;10.40;87.80
82231;DHT22;71832;45.138;9.816;2023-11-21T01:20:30;10.40;87.80
82231;DHT22;71832;45.138;9.816;2023-11-21T01:22:59;10.40;87.80
82231;DHT22;71832;45.138;9.816;2023-11-21T01:25:27;10.40;88.00
82231;DHT22;71832;45.138;9.816;2023-11-21T01:27:56;10.40;88.20
82231;DHT22;71832;45.138;9.816;2023-11-21T01:30:25;10.40;88.10
82231;DHT22;71832;45.138;9.816;2023-11-21T01:32:53;10.40;88.00
82231;DHT22;71832;45.138;9.816;2023-11-21T01:35:22;10.40;87.80
82231;DHT22;71832;45.138;9.816;2023-11-21T01:37:50;10.40;87.80
82231;DHT22;71832;45.138;9.816;2023-11-21T01:40:18;10.40;88.00
82231;DHT22;71832;45.138;9.816;2023-11-21T01:42:48;10.40;87.80
82231;DHT22;71832;45.138;9.816;2023-11-21T01:45:16;10.40;87.50
82231;DHT22;71832;45.138;9.816;2023-11-21T01:47:45;10.40;87.50
82231;DHT22;71832;45.138;9.816;2023-11-21T01:50:16;10.40;87.40
82231;DHT22;71832;45.138;9.816;2023-11-21T01:52:46;10.40;87.50
82231;DHT22;71832;45.138;9.816;2023-11-21T01:55:16;10.30;87.60
82231;DHT22;71832;45.138;9.816;2023-11-21T01:57:46;10.40;87.50
82231;DHT22;71832;45.138;9.816;2023-11-21T02:00:14;10.40;87.70
82231;DHT22;71832;45.138;9.816;2023-11-21T02:02:44;10.40;87.60
82231;DHT22;71832;45.138;9.816;2023-11-21T02:05:17;10.40;87.80
82231;DHT22;71832;45.138;9.816;2023-11-21T02:07:46;10.40;87.70
82231;DHT22;71832;45.138;9.816;2023-11-21T02:10:15;10.40;87.70
82231;DHT22;71832;45.138;9.816;2023-11-21T02:12:45;10.40;87.80
82231;DHT22;71832;45.138;9.816;2023-11-21T02:15:15;10.40;87.70
82231;DHT22;71832;45.138;9.816;2023-11-21T02:17:48;10.40;87.80
82231;DHT22;71832;45.138;9.816;2023-11-21T02:20:18;10.40;87.70
82231;DHT22;71832;45.138;9.816;2023-11-21T02:22:51;10.40;87.70
82231;DHT22;71832;45.138;9.816;2023-11-21T02:25:29;10.40;87.70
82231;DHT22;71832;45.138;9.816;2023-11-21T02:28:01;10.40;87.70
82231;DHT22;71832;45.138;9.816;2023-11-21T02:30:30;10.40;88.00
82231;DHT22;71832;45.138;9.816;2023-11-21T02:32:59;10.40;88.60
82231;DHT22;71832;45.138;9.816;2023-11-21T02:35:28;10.40;88.90
82231;DHT22;71832;45.138;9.816;2023-11-21T02:37:58;10.30;89.10
82231;DHT22;71832;45.138;9.816;2023-11-21T02:40:26;10.30;88.90
82231;DHT22;71832;45.138;9.816;2023-11-21T02:42:54;10.30;88.90
82231;DHT22;71832;45.138;9.816;2023-11-21T02:45:24;10.30;89.10
82231;DHT22;71832;45.138;9.816;2023-11-21T02:47:53;10.30;88.80
82231;DHT22;71832;45.138;9.816;2023-11-21T02:50:24;10.30;89.00
82231;DHT22;71832;45.138;9.816;2023-11-21T02:52:52;10.30;88.80
82231;DHT22;71832;45.138;9.816;2023-11-21T02:55:20;10.30;88.80
82231;DHT22;71832;45.138;9.816;2023-11-21T02:57:49;10.20;89.10
82231;DHT22;71832;45.138;9.816;2023-11-21T03:00:18;10.20;89.50
82231;DHT22;71832;45.138;9.816;2023-11-21T03:02:47;10.20;89.80
82231;DHT22;71832;45.138;9.816;2023-11-21T03:05:15;10.20;89.90
82231;DHT22;71832;45.138;9.816;2023-11-21T03:07:44;10.20;90.00
82231;DHT22;71832;45.138;9.816;2023-11-21T03:10:13;10.20;90.20
82231;DHT22;71832;45.138;9.816;2023-11-21T03:12:41;10.20;90.20
82231;DHT22;71832;45.138;9.816;2023-11-21T03:15:09;10.20;89.80
82231;DHT22;71832;45.138;9.816;2023-11-21T03:17:36;10.20;89.60
82231;DHT22;71832;45.138;9.816;2023-11-21T03:20:04;10.10;89.20
82231;DHT22;71832;45.138;9.816;2023-11-21T03:22:33;10.10;89.30
82231;DHT22;71832;45.138;9.816;2023-11-21T03:25:01;10.20;89.60
82231;DHT22;71832;45.138;9.816;2023-11-21T03:27:30;10.20;89.30
82231;DHT22;71832;45.138;9.816;2023-11-21T03:29:59;10.20;89.20
82231;DHT22;71832;45.138;9.816;2023-11-21T03:32:28;10.20;88.90
82231;DHT22;71832;45.138;9.816;2023-11-21T03:34:59;10.20;88.70
82231;DHT22;71832;45.138;9.816;2023-11-21T03:37:29;10.20;89.30
82231;DHT22;71832;45.138;9.816;2023-11-21T03:39:58;10.20;89.20
82231;DHT22;71832;45.138;9.816;2023-11-21T03:42:27;10.10;89.90
82231;DHT22;71832;45.138;9.816;2023-11-21T03:44:55;10.20;89.40
82231;DHT22;71832;45.138;9.816;2023-11-21T03:47:22;10.20;89.10
82231;DHT22;71832;45.138;9.816;2023-11-21T03:49:51;10.20;89.50
82231;DHT22;71832;45.138;9.816;2023-11-21T03:52:19;10.10;89.80
82231;DHT22;71832;45.138;9.816;2023-11-21T03:54:48;10.10;90.20
82231;DHT22;71832;45.138;9.816;2023-11-21T03:57:16;10.10;90.30
82231;DHT22;71832;45.138;9.816;2023-11-21T03:59:45;10.10;90.30
82231;DHT22;71832;45.138;9.816;2023-11-21T04:02:13;10.20;90.00
82231;DHT22;71832;45.138;9.816;2023-11-21T04:04:42;10.20;90.40
82231;DHT22;71832;45.138;9.816;2023-11-21T04:07:11;10.20;90.70
82231;DHT22;71832;45.138;9.816;2023-11-21T04:09:41;10.20;91.00
82231;DHT22;71832;45.138;9.816;2023-11-21T04:12:09;10.20;90.90
82231;DHT22;71832;45.138;9.816;2023-11-21T04:14:36;10.20;90.80
82231;DHT22;71832;45.138;9.816;2023-11-21T04:17:04;10.20;91.00
82231;DHT22;71832;45.138;9.816;2023-11-21T04:19:33;10.20;91.10
82231;DHT22;71832;45.138;9.816;2023-11-21T04:22:01;10.20;91.40
82231;DHT22;71832;45.138;9.816;2023-11-21T04:24:29;10.20;91.40
82231;DHT22;71832;45.138;9.816;2023-11-21T04:26:58;10.20;91.50
82231;DHT22;71832;45.138;9.816;2023-11-21T04:29:27;10.20;92.00
82231;DHT22;71832;45.138;9.816;2023-11-21T04:31:55;10.20;91.70
82231;DHT22;71832;45.138;9.816;2023-11-21T04:34:24;10.20;92.10
82231;DHT22;71832;45.138;9.816;2023-11-21T04:36:52;10.20;92.00
82231;DHT22;71832;45.138;9.816;2023-11-21T04:39:20;10.20;91.60
82231;DHT22;71832;45.138;9.816;2023-11-21T04:41:48;10.20;91.80
82231;DHT22;71832;45.138;9.816;2023-11-21T04:44:17;10.10;91.80
82231;DHT22;71832;45.138;9.816;2023-11-21T04:46:46;10.10;92.00
82231;DHT22;71832;45.138;9.816;2023-11-21T04:49:15;10.10;92.30
82231;DHT22;71832;45.138;9.816;2023-11-21T04:51:43;10.10;92.50
82231;DHT22;71832;45.138;9.816;2023-11-21T04:54:11;10.10;92.90
82231;DHT22;71832;45.138;9.816;2023-11-21T04:56:38;10.10;92.90
82231;DHT22;71832;45.138;9.816;2023-11-21T04:59:05;10.10;92.90
82231;DHT22;71832;45.138;9.816;2023-11-21T05:01:33;10.10;92.70
82231;DHT22;71832;45.138;9.816;2023-11-21T05:04:00;10.10;92.70
82231;DHT22;71832;45.138;9.816;2023-11-21T05:06:30;10.10;92.90
82231;DHT22;71832;45.138;9.816;2023-11-21T05:08:57;10.10;92.70
82231;DHT22;71832;45.138;9.816;2023-11-21T05:11:26;10.10;92.60
82231;DHT22;71832;45.138;9.816;2023-11-21T05:13:54;10.10;92.60
82231;DHT22;71832;45.138;9.816;2023-11-21T05:16:25;10.10;92.50
82231;DHT22;71832;45.138;9.816;2023-11-21T05:18:54;10.10;92.40
82231;DHT22;71832;45.138;9.816;2023-11-21T05:21:27;10.10;92.30
82231;DHT22;71832;45.138;9.816;2023-11-21T05:23:56;10.10;92.10
82231;DHT22;71832;45.138;9.816;2023-11-21T05:26:24;10.10;91.90
82231;DHT22;71832;45.138;9.816;2023-11-21T05:28:52;10.10;91.90
82231;DHT22;71832;45.138;9.816;2023-11-21T05:31:20;10.10;92.00
82231;DHT22;71832;45.138;9.816;2023-11-21T05:33:48;10.10;92.00
82231;DHT22;71832;45.138;9.816;2023-11-21T05:36:16;10.10;92.00
82231;DHT22;71832;45.138;9.816;2023-11-21T05:38:44;10.00;92.00
82231;DHT22;71832;45.138;9.816;2023-11-21T05:41:13;10.00;92.00
82231;DHT22;71832;45.138;9.816;2023-11-21T05:43:40;10.00;92.10
82231;DHT22;71832;45.138;9.816;2023-11-21T05:46:08;10.00;91.70
82231;DHT22;71832;45.138;9.816;2023-11-21T05:48:36;10.00;91.50
82231;DHT22;71832;45.138;9.816;2023-11-21T05:51:06;10.00;91.50
82231;DHT22;71832;45.138;9.816;2023-11-21T05:53:33;10.00;91.90
82231;DHT22;71832;45.138;9.816;2023-11-21T05:56:01;10.00;92.00
82231;DHT22;71832;45.138;9.816;2023-11-21T05:58:31;10.00;91.50
82231;DHT22;71832;45.138;9.816;2023-11-21T06:00:58;10.00;91.20
82231;DHT22;71832;45.138;9.816;2023-11-21T06:03:26;10.00;91.20
82231;DHT22;71832;45.138;9.816;2023-11-21T06:05:54;9.90;91.30
82231;DHT22;71832;45.138;9.816;2023-11-21T06:08:22;9.80;92.00
82231;DHT22;71832;45.138;9.816;2023-11-21T06:10:51;9.80;92.50
82231;DHT22;71832;45.138;9.816;2023-11-21T06:13:18;9.80;92.70
82231;DHT22;71832;45.138;9.816;2023-11-21T06:15:51;9.70;93.10
82231;DHT22;71832;45.138;9.816;2023-11-21T06:18:19;9.70;93.10
82231;DHT22;71832;45.138;9.816;2023-11-21T06:20:47;9.70;93.10
82231;DHT22;71832;45.138;9.816;2023-11-21T06:23:14;9.70;93.00
82231;DHT22;71832;45.138;9.816;2023-11-21T06:25:43;9.70;93.00
82231;DHT22;71832;45.138;9.816;2023-11-21T06:28:11;9.70;92.20
82231;DHT22;71832;45.138;9.816;2023-11-21T06:30:39;9.70;92.10
82231;DHT22;71832;45.138;9.816;2023-11-21T06:33:09;9.80;91.80
82231;DHT22;71832;45.138;9.816;2023-11-21T06:35:38;9.80;91.40
82231;DHT22;71832;45.138;9.816;2023-11-21T06:38:06;9.80;90.80
82231;DHT22;71832;45.138;9.816;2023-11-21T06:40:35;9.80;91.00
82231;DHT22;71832;45.138;9.816;2023-11-21T06:43:03;9.80;91.10
82231;DHT22;71832;45.138;9.816;2023-11-21T06:45:31;9.80;90.50
82231;DHT22;71832;45.138;9.816;2023-11-21T06:48:01;9.80;90.50
82231;DHT22;71832;45.138;9.816;2023-11-21T06:50:28;9.90;90.60
82231;DHT22;71832;45.138;9.816;2023-11-21T06:52:56;9.90;90.90
82231;DHT22;71832;45.138;9.816;2023-11-21T06:55:25;10.00;90.60
82231;DHT22;71832;45.138;9.816;2023-11-21T06:57:54;10.00;90.70
82231;DHT22;71832;45.138;9.816;2023-11-21T07:00:22;10.00;90.80
82231;DHT22;71832;45.138;9.816;2023-11-21T07:02:51;10.00;91.10
82231;DHT22;71832;45.138;9.816;2023-11-21T07:05:20;10.00;91.40
82231;DHT22;71832;45.138;9.816;2023-11-21T07:07:49;10.00;91.60
82231;DHT22;71832;45.138;9.816;2023-11-21T07:10:18;10.00;91.90
82231;DHT22;71832;45.138;9.816;2023-11-21T07:12:46;10.00;92.00
82231;DHT22;71832;45.138;9.816;2023-11-21T07:15:15;10.10;92.40
82231;DHT22;71832;45.138;9.816;2023-11-21T07:17:44;10.10;92.60
82231;DHT22;71832;45.138;9.816;2023-11-21T07:20:14;10.10;92.80
82231;DHT22;71832;45.138;9.816;2023-11-21T07:22:44;10.20;92.90
82231;DHT22;71832;45.138;9.816;2023-11-21T07:25:12;10.20;92.70
82231;DHT22;71832;45.138;9.816;2023-11-21T07:27:40;10.20;93.00
82231;DHT22;71832;45.138;9.816;2023-11-21T07:30:09;10.20;93.00
82231;DHT22;71832;45.138;9.816;2023-11-21T07:32:38;10.20;92.90
82231;DHT22;71832;45.138;9.816;2023-11-21T07:35:07;10.20;93.30
82231;DHT22;71832;45.138;9.816;2023-11-21T07:37:36;10.20;93.60
82231;DHT22;71832;45.138;9.816;2023-11-21T07:40:04;10.20;93.80
82231;DHT22;71832;45.138;9.816;2023-11-21T07:42:33;10.20;94.00
82231;DHT22;71832;45.138;9.816;2023-11-21T07:45:01;10.20;94.20
82231;DHT22;71832;45.138;9.816;2023-11-21T07:47:31;10.20;93.90
82231;DHT22;71832;45.138;9.816;2023-11-21T07:50:03;10.20;93.80
82231;DHT22;71832;45.138;9.816;2023-11-21T07:52:31;10.20;93.60
82231;DHT22;71832;45.138;9.816;2023-11-21T07:55:00;10.30;93.30
82231;DHT22;71832;45.138;9.816;2023-11-21T07:57:29;10.30;93.30
82231;DHT22;71832;45.138;9.816;2023-11-21T07:59:57;10.30;93.20
82231;DHT22;71832;45.138;9.816;2023-11-21T08:02:27;10.30;94.00
82231;DHT22;71832;45.138;9.816;2023-11-21T08:04:56;10.30;94.10
82231;DHT22;71832;45.138;9.816;2023-11-21T08:07:24;10.30;94.50
82231;DHT22;71832;45.138;9.816;2023-11-21T08:09:52;10.30;94.50
82231;DHT22;71832;45.138;9.816;2023-11-21T08:12:20;10.30;94.30
82231;DHT22;71832;45.138;9.816;2023-11-21T08:14:47;10.30;94.00
82231;DHT22;71832;45.138;9.816;2023-11-21T08:17:15;10.30;93.40
82231;DHT22;71832;45.138;9.816;2023-11-21T08:19:43;10.30;93.60
82231;DHT22;71832;45.138;9.816;2023-11-21T08:22:11;10.30;93.20
82231;DHT22;71832;45.138;9.816;2023-11-21T08:24:40;10.30;93.50
82231;DHT22;71832;45.138;9.816;2023-11-21T08:27:08;10.40;93.60
82231;DHT22;71832;45.138;9.816;2023-11-21T08:29:37;10.40;93.30
82231;DHT22;71832;45.138;9.816;2023-11-21T08:32:05;10.40;93.40
82231;DHT22;71832;45.138;9.816;2023-11-21T08:34:34;10.40;93.00
82231;DHT22;71832;45.138;9.816;2023-11-21T08:37:03;10.50;92.90
82231;DHT22;71832;45.138;9.816;2023-11-21T08:39:32;10.50;92.90
82231;DHT22;71832;45.138;9.816;2023-11-21T08:42:01;10.50;92.50
82231;DHT22;71832;45.138;9.816;2023-11-21T08:44:30;10.60;93.10
82231;DHT22;71832;45.138;9.816;2023-11-21T08:46:58;10.60;92.90
82231;DHT22;71832;45.138;9.816;2023-11-21T08:49:27;10.60;93.00
82231;DHT22;71832;45.138;9.816;2023-11-21T08:51:56;10.60;93.00
82231;DHT22;71832;45.138;9.816;2023-11-21T08:54:27;10.60;91.70
82231;DHT22;71832;45.138;9.816;2023-11-21T08:56:55;10.70;90.80
82231;DHT22;71832;45.138;9.816;2023-11-21T08:59:26;10.70;91.90
82231;DHT22;71832;45.138;9.816;2023-11-21T09:01:54;10.70;91.40
82231;DHT22;71832;45.138;9.816;2023-11-21T09:04:23;10.80;91.40
82231;DHT22;71832;45.138;9.816;2023-11-21T09:06:52;10.80;90.80
82231;DHT22;71832;45.138;9.816;2023-11-21T09:09:21;10.90;91.00
82231;DHT22;71832;45.138;9.816;2023-11-21T09:11:51;11.00;90.40
82231;DHT22;71832;45.138;9.816;2023-11-21T09:14:20;11.00;90.70
82231;DHT22;71832;45.138;9.816;2023-11-21T09:16:49;11.10;88.90
82231;DHT22;71832;45.138;9.816;2023-11-21T09:19:18;11.10;88.40
82231;DHT22;71832;45.138;9.816;2023-11-21T09:21:46;11.10;88.70
82231;DHT22;71832;45.138;9.816;2023-11-21T09:24:16;11.20;88.80
82231;DHT22;71832;45.138;9.816;2023-11-21T09:26:48;11.20;89.60
82231;DHT22;71832;45.138;9.816;2023-11-21T09:29:17;11.30;89.30
82231;DHT22;71832;45.138;9.816;2023-11-21T09:31:46;11.30;88.10
82231;DHT22;71832;45.138;9.816;2023-11-21T09:34:14;11.40;87.50
82231;DHT22;71832;45.138;9.816;2023-11-21T09:36:46;11.50;87.00
82231;DHT22;71832;45.138;9.816;2023-11-21T09:39:15;11.50;87.70
82231;DHT22;71832;45.138;9.816;2023-11-21T09:41:51;11.50;87.50
82231;DHT22;71832;45.138;9.816;2023-11-21T09:44:36;11.60;87.60
82231;DHT22;71832;45.138;9.816;2023-11-21T09:47:12;11.50;86.60
82231;DHT22;71832;45.138;9.816;2023-11-21T09:49:46;11.50;86.60
82231;DHT22;71832;45.138;9.816;2023-11-21T09:52:22;11.50;86.90
82231;DHT22;71832;45.138;9.816;2023-11-21T09:54:53;11.50;87.50
82231;DHT22;71832;45.138;9.816;2023-11-21T09:57:24;11.50;87.00
82231;DHT22;71832;45.138;9.816;2023-11-21T09:59:54;11.50;87.00
82231;DHT22;71832;45.138;9.816;2023-11-21T10:02:27;11.60;87.20
82231;DHT22;71832;45.138;9.816;2023-11-21T10:04:57;11.70;87.00
82231;DHT22;71832;45.138;9.816;2023-11-21T10:07:27;11.70;86.80
82231;DHT22;71832;45.138;9.816;2023-11-21T10:09:57;11.70;86.50
82231;DHT22;71832;45.138;9.816;2023-11-21T10:12:28;11.70;86.10
82231;DHT22;71832;45.138;9.816;2023-11-21T10:14:59;11.80;86.80
82231;DHT22;71832;45.138;9.816;2023-11-21T10:17:29;11.90;86.40
82231;DHT22;71832;45.138;9.816;2023-11-21T10:20:05;11.90;86.20
82231;DHT22;71832;45.138;9.816;2023-11-21T10:22:41;12.00;85.80
82231;DHT22;71832;45.138;9.816;2023-11-21T10:25:10;11.90;86.30
82231;DHT22;71832;45.138;9.816;2023-11-21T10:27:41;12.00;85.70
82231;DHT22;71832;45.138;9.816;2023-11-21T10:30:11;11.90;85.50
82231;DHT22;71832;45.138;9.816;2023-11-21T10:32:40;11.90;86.00
82231;DHT22;71832;45.138;9.816;2023-11-21T10:35:09;11.90;85.90
82231;DHT22;71832;45.138;9.816;2023-11-21T10:37:39;11.90;85.70
82231;DHT22;71832;45.138;9.816;2023-11-21T10:40:10;11.90;85.80
82231;DHT22;71832;45.138;9.816;2023-11-21T10:42:39;12.00;86.20
82231;DHT22;71832;45.138;9.816;2023-11-21T10:45:09;12.00;86.50
82231;DHT22;71832;45.138;9.816;2023-11-21T10:47:41;12.10;86.20
82231;DHT22;71832;45.138;9.816;2023-11-21T10:50:10;12.00;86.10
82231;DHT22;71832;45.138;9.816;2023-11-21T10:52:40;12.00;86.00
82231;DHT22;71832;45.138;9.816;2023-11-21T10:55:17;12.00;85.40
82231;DHT22;71832;45.138;9.816;2023-11-21T10:57:52;12.00;85.00
82231;DHT22;71832;45.138;9.816;2023-11-21T11:00:21;12.00;84.20
82231;DHT22;71832;45.138;9.816;2023-11-21T11:02:52;12.00;84.90
82231;DHT22;71832;45.138;9.816;2023-11-21T11:05:24;12.10;84.40
82231;DHT22;71832;45.138;9.816;2023-11-21T11:07:59;12.10;83.80
82231;DHT22;71832;45.138;9.816;2023-11-21T11:10:29;12.10;84.20
82231;DHT22;71832;45.138;9.816;2023-11-21T11:12:58;12.10;84.30
82231;DHT22;71832;45.138;9.816;2023-11-21T11:15:27;12.10;84.40
82231;DHT22;71832;45.138;9.816;2023-11-21T11:17:56;12.10;84.00
82231;DHT22;71832;45.138;9.816;2023-11-21T11:20:31;12.10;83.40
82231;DHT22;71832;45.138;9.816;2023-11-21T11:31:20;12.20;84.80
82231;DHT22;71832;45.138;9.816;2023-11-21T11:34:00;12.20;84.40
82231;DHT22;71832;45.138;9.816;2023-11-21T11:36:41;12.30;84.60
82231;DHT22;71832;45.138;9.816;2023-11-21T11:39:33;12.20;83.60
82231;DHT22;71832;45.138;9.816;2023-11-21T11:42:05;12.20;84.00
82231;DHT22;71832;45.138;9.816;2023-11-21T11:47:15;12.10;83.00
82231;DHT22;71832;45.138;9.816;2023-11-21T11:50:12;12.10;82.00
82231;DHT22;71832;45.138;9.816;2023-11-21T11:52:45;12.00;82.20
82231;DHT22;71832;45.138;9.816;2023-11-21T11:55:15;12.00;82.50
82231;DHT22;71832;45.138;9.816;2023-11-21T11:57:53;12.00;82.90
82231;DHT22;71832;45.138;9.816;2023-11-21T12:02:59;12.10;83.40
82231;DHT22;71832;45.138;9.816;2023-11-21T12:05:31;12.10;84.30
82231;DHT22;71832;45.138;9.816;2023-11-21T12:08:03;12.20;84.50
82231;DHT22;71832;45.138;9.816;2023-11-21T12:10:33;12.20;83.90
82231;DHT22;71832;45.138;9.816;2023-11-21T12:13:03;12.20;82.50
82231;DHT22;71832;45.138;9.816;2023-11-21T12:15:34;12.30;82.90
82231;DHT22;71832;45.138;9.816;2023-11-21T12:18:03;12.30;83.00
82231;DHT22;71832;45.138;9.816;2023-11-21T12:20:33;12.30;82.60
82231;DHT22;71832;45.138;9.816;2023-11-21T12:23:13;12.30;82.90
82231;DHT22;71832;45.138;9.816;2023-11-21T12:25:42;12.30;82.60
82231;DHT22;71832;45.138;9.816;2023-11-21T12:28:10;12.40;82.00
82231;DHT22;71832;45.138;9.816;2023-11-21T12:30:39;12.40;82.20
82231;DHT22;71832;45.138;9.816;2023-11-21T12:33:06;12.40;81.90
82231;DHT22;71832;45.138;9.816;2023-11-21T12:35:35;12.40;81.70
82231;DHT22;71832;45.138;9.816;2023-11-21T12:38:04;12.30;82.30
82231;DHT22;71832;45.138;9.816;2023-11-21T12:40:32;12.30;82.70
82231;DHT22;71832;45.138;9.816;2023-11-21T12:43:01;12.30;81.90
82231;DHT22;71832;45.138;9.816;2023-11-21T12:45:31;12.30;81.80
82231;DHT22;71832;45.138;9.816;2023-11-21T12:48:02;12.40;81.70
82231;DHT22;71832;45.138;9.816;2023-11-21T12:50:35;12.50;81.50
82231;DHT22;71832;45.138;9.816;2023-11-21T12:53:10;12.50;81.10
82231;DHT22;71832;45.138;9.816;2023-11-21T12:55:44;12.50;81.00
82231;DHT22;71832;45.138;9.816;2023-11-21T12:58:16;12.50;81.40
82231;DHT22;71832;45.138;9.816;2023-11-21T13:00:48;12.50;81.70
82231;DHT22;71832;45.138;9.816;2023-11-21T13:03:18;12.50;81.60
82231;DHT22;71832;45.138;9.816;2023-11-21T13:05:47;12.60;81.80
82231;DHT22;71832;45.138;9.816;2023-11-21T13:08:18;12.60;82.00
82231;DHT22;71832;45.138;9.816;2023-11-21T13:10:52;12.60;81.90
82231;DHT22;71832;45.138;9.816;2023-11-21T13:13:22;12.60;81.40
82231;DHT22;71832;45.138;9.816;2023-11-21T13:15:53;12.60;80.90
82231;DHT22;71832;45.138;9.816;2023-11-21T13:18:24;12.60;80.90
82231;DHT22;71832;45.138;9.816;2023-11-21T13:20:54;12.60;80.50
82231;DHT22;71832;45.138;9.816;2023-11-21T13:23:24;12.50;80.40
82231;DHT22;71832;45.138;9.816;2023-11-21T13:25:54;12.60;80.80
82231;DHT22;71832;45.138;9.816;2023-11-21T13:28:22;12.50;81.20
82231;DHT22;71832;45.138;9.816;2023-11-21T13:30:51;12.60;81.10
82231;DHT22;71832;45.138;9.816;2023-11-21T13:33:19;12.60;81.20
82231;DHT22;71832;45.138;9.816;2023-11-21T13:35:54;12.60;81.00
82231;DHT22;71832;45.138;9.816;2023-11-21T13:38:23;12.50;81.30
82231;DHT22;71832;45.138;9.816;2023-11-21T13:40:55;12.50;81.40
82231;DHT22;71832;45.138;9.816;2023-11-21T13:43:26;12.50;81.60
82231;DHT22;71832;45.138;9.816;2023-11-21T13:45:55;12.50;81.70
82231;DHT22;71832;45.138;9.816;2023-11-21T13:48:31;12.50;81.50
82231;DHT22;71832;45.138;9.816;2023-11-21T13:51:05;12.50;81.40
82231;DHT22;71832;45.138;9.816;2023-11-21T13:53:52;12.50;81.60
82231;DHT22;71832;45.138;9.816;2023-11-21T13:56:22;12.50;81.60
82231;DHT22;71832;45.138;9.816;2023-11-21T13:58:51;12.50;81.50
82231;DHT22;71832;45.138;9.816;2023-11-21T14:01:22;12.50;81.50
82231;DHT22;71832;45.138;9.816;2023-11-21T14:04:00;12.50;81.90
82231;DHT22;71832;45.138;9.816;2023-11-21T14:06:49;12.50;81.90
82231;DHT22;71832;45.138;9.816;2023-11-21T14:09:23;12.50;81.40
82231;DHT22;71832;45.138;9.816;2023-11-21T14:11:53;12.50;80.70
82231;DHT22;71832;45.138;9.816;2023-11-21T14:14:26;12.50;80.80
82231;DHT22;71832;45.138;9.816;2023-11-21T14:16:55;12.50;81.40
82231;DHT22;71832;45.138;9.816;2023-11-21T14:19:26;12.50;81.40
82231;DHT22;71832;45.138;9.816;2023-11-21T14:21:58;12.50;81.50
82231;DHT22;71832;45.138;9.816;2023-11-21T14:24:27;12.40;82.50
82231;DHT22;71832;45.138;9.816;2023-11-21T14:26:56;12.40;82.70
82231;DHT22;71832;45.138;9.816;2023-11-21T14:29:25;12.30;82.40
82231;DHT22;71832;45.138;9.816;2023-11-21T14:31:54;12.30;82.40
82231;DHT22;71832;45.138;9.816;2023-11-21T14:34:25;12.30;82.50
82231;DHT22;71832;45.138;9.816;2023-11-21T14:36:54;12.30;83.00
82231;DHT22;71832;45.138;9.816;2023-11-21T14:39:22;12.30;83.00
82231;DHT22;71832;45.138;9.816;2023-11-21T14:41:53;12.20;82.90
82231;DHT22;71832;45.138;9.816;2023-11-21T14:44:23;12.20;83.30
82231;DHT22;71832;45.138;9.816;2023-11-21T14:46:54;12.20;83.40
82231;DHT22;71832;45.138;9.816;2023-11-21T14:49:24;12.20;83.50
82231;DHT22;71832;45.138;9.816;2023-11-21T14:51:55;12.10;84.60
82231;DHT22;71832;45.138;9.816;2023-11-21T14:54:42;12.10;84.70
82231;DHT22;71832;45.138;9.816;2023-11-21T14:57:19;12.00;84.80
82231;DHT22;71832;45.138;9.816;2023-11-21T14:59:50;12.00;84.80
82231;DHT22;71832;45.138;9.816;2023-11-21T15:02:20;12.00;85.00
82231;DHT22;71832;45.138;9.816;2023-11-21T15:04:50;11.90;85.50
82231;DHT22;71832;45.138;9.816;2023-11-21T15:07:23;11.90;85.50
82231;DHT22;71832;45.138;9.816;2023-11-21T15:09:53;11.90;85.70
82231;DHT22;71832;45.138;9.816;2023-11-21T15:12:21;11.90;85.80
82231;DHT22;71832;45.138;9.816;2023-11-21T15:14:53;11.80;86.60
82231;DHT22;71832;45.138;9.816;2023-11-21T15:17:24;11.70;86.80
82231;DHT22;71832;45.138;9.816;2023-11-21T15:19:54;11.70;87.00
82231;DHT22;71832;45.138;9.816;2023-11-21T15:22:22;11.70;87.20
82231;DHT22;71832;45.138;9.816;2023-11-21T15:24:50;11.70;87.20
82231;DHT22;71832;45.138;9.816;2023-11-21T15:27:20;11.60;87.00
82231;DHT22;71832;45.138;9.816;2023-11-21T15:29:48;11.60;87.00
82231;DHT22;71832;45.138;9.816;2023-11-21T15:32:16;11.50;87.40
82231;DHT22;71832;45.138;9.816;2023-11-21T15:34:45;11.50;87.50
82231;DHT22;71832;45.138;9.816;2023-11-21T15:37:13;11.50;87.30
82231;DHT22;71832;45.138;9.816;2023-11-21T15:39:43;11.50;86.90
82231;DHT22;71832;45.138;9.816;2023-11-21T15:42:12;11.40;87.00
82231;DHT22;71832;45.138;9.816;2023-11-21T15:44:41;11.30;87.20
82231;DHT22;71832;45.138;9.816;2023-11-21T15:47:09;11.30;87.30
82231;DHT22;71832;45.138;9.816;2023-11-21T15:49:37;11.30;87.60
82231;DHT22;71832;45.138;9.816;2023-11-21T15:52:06;11.20;87.50
82231;DHT22;71832;45.138;9.816;2023-11-21T15:54:38;11.10;87.70
82231;DHT22;71832;45.138;9.816;2023-11-21T15:57:07;11.10;88.00
82231;DHT22;71832;45.138;9.816;2023-11-21T15:59:39;11.10;88.30
82231;DHT22;71832;45.138;9.816;2023-11-21T16:02:09;11.10;88.50